HKNW/WIL METAR and TAF weather

Enter ICAO airport designator
Station Type Date Time Source
HKNW METAR 2020/09/25 18:00 UTC NOAA

HKNW 251800Z 00000KT 9999 -RA BKN018 BKN080 17/16 Q1021


Station Type Date Time Source
HKNW Decoded METAR 2020/09/25 18:00 UTC NOAA

Nairobi / Wilson, Kenya (HKNW) 01-19S 036-49E 1679M
Sep 25, 2020 - 02:00 PM EDT / 2020.09.25 1800 UTC
Wind: Calm:0
Visibility: greater than 7 mile(s):0
Sky conditions: mostly cloudy
Weather: light rain
Temperature: 62 F (17 C)
Dew Point: 60 F (16 C)
Relative Humidity: 93%
Pressure (altimeter): 30.15 in. Hg (1021 hPa)
ob: HKNW 251800Z 00000KT 9999 -RA BKN018 BKN080 17/16 Q1021
cycle: 18

Station Type Date Time Source
HKNW TAF 2020/09/25 18:06 UTC NOAA

TAF HKNW 251700Z 2518/2618 VRB02KT 9999 -RA BKN019 BKN080
TEMPO 2600/2604 FEW007 BKN014
BECMG 2608/2611 10010KT BKN025

Example: see airport list